createdAt,value
2018-09-24T00:01:04.001Z,12.90
2018-09-24T00:03:32.892Z,12.90
2018-09-24T00:06:02.045Z,12.70
2018-09-24T00:08:30.864Z,12.70
2018-09-24T00:10:59.783Z,12.60
2018-09-24T00:13:28.717Z,12.60
2018-09-24T00:15:57.580Z,12.50
2018-09-24T00:18:26.513Z,12.60
2018-09-24T00:20:55.413Z,12.40
2018-09-24T00:23:24.236Z,12.50
2018-09-24T00:25:53.171Z,12.50
2018-09-24T00:28:22.766Z,12.50
2018-09-24T00:30:51.589Z,12.50
2018-09-24T00:33:20.493Z,12.50
2018-09-24T00:35:49.355Z,12.50
2018-09-24T00:38:19.281Z,12.50
2018-09-24T00:40:48.387Z,12.40
2018-09-24T00:43:17.215Z,12.40
2018-09-24T00:45:46.083Z,12.40
2018-09-24T00:48:15.022Z,12.40
2018-09-24T00:50:44.841Z,12.30
2018-09-24T00:53:14.030Z,12.30
2018-09-24T00:55:42.857Z,12.20
2018-09-24T00:58:12.645Z,12.10
2018-09-24T01:00:41.420Z,12.10
2018-09-24T01:03:10.276Z,12.10
2018-09-24T01:05:39.233Z,12.10
2018-09-24T01:08:08.038Z,12.10
2018-09-24T01:10:36.846Z,12.10
2018-09-24T01:13:05.777Z,12.00
2018-09-24T01:15:34.624Z,12.00
2018-09-24T01:18:04.069Z,12.00
2018-09-24T01:20:32.916Z,12.00
2018-09-24T01:23:01.776Z,11.90
2018-09-24T01:25:30.642Z,11.80
2018-09-24T01:28:00.507Z,11.80
2018-09-24T01:30:29.473Z,11.80
2018-09-24T01:32:58.340Z,11.80
2018-09-24T01:35:27.232Z,11.80
2018-09-24T01:37:57.060Z,11.90
2018-09-24T01:40:25.897Z,12.00
2018-09-24T01:42:54.845Z,12.00
2018-09-24T01:45:23.921Z,12.00
2018-09-24T01:47:52.991Z,11.90
2018-09-24T01:50:22.234Z,11.90
2018-09-24T01:52:51.788Z,11.90
2018-09-24T01:55:20.824Z,11.70
2018-09-24T01:57:51.001Z,11.70
2018-09-24T02:00:20.609Z,11.70
2018-09-24T02:02:49.746Z,11.80
2018-09-24T02:05:18.840Z,11.80
2018-09-24T02:07:47.825Z,11.70
2018-09-24T02:10:22.214Z,11.70
2018-09-24T02:12:54.657Z,11.70
2018-09-24T02:15:26.448Z,11.60
2018-09-24T02:17:55.538Z,11.60
2018-09-24T02:20:24.570Z,11.60
2018-09-24T02:22:53.589Z,11.60
2018-09-24T02:25:23.029Z,11.60
2018-09-24T02:27:52.062Z,11.60
2018-09-24T02:30:22.876Z,11.60
2018-09-24T02:32:51.840Z,11.60
2018-09-24T02:35:20.936Z,11.50
2018-09-24T02:37:50.169Z,11.40
2018-09-24T02:40:22.349Z,11.40
2018-09-24T02:42:51.395Z,11.40
2018-09-24T02:45:20.583Z,11.40
2018-09-24T02:47:49.629Z,11.40
2018-09-24T02:50:50.696Z,11.40
2018-09-24T02:53:21.013Z,11.30
2018-09-24T02:55:50.777Z,11.40
2018-09-24T02:58:20.628Z,11.30
2018-09-24T03:00:49.728Z,11.30
2018-09-24T03:03:18.601Z,11.30
2018-09-24T03:05:47.443Z,11.30
2018-09-24T03:08:16.187Z,11.20
2018-09-24T03:10:45.074Z,11.10
2018-09-24T03:13:14.018Z,11.10
2018-09-24T03:15:42.960Z,11.10
2018-09-24T03:18:12.315Z,11.10
2018-09-24T03:20:42.384Z,11.10
2018-09-24T03:23:11.309Z,11.10
2018-09-24T03:25:41.212Z,11.10
2018-09-24T03:28:10.080Z,11.10
2018-09-24T03:30:40.538Z,11.20
2018-09-24T03:33:09.376Z,11.20
2018-09-24T03:35:38.222Z,11.10
2018-09-24T03:38:07.454Z,11.10
2018-09-24T03:40:36.339Z,11.10
2018-09-24T03:43:05.980Z,11.20
2018-09-24T03:45:34.921Z,11.10
2018-09-24T03:48:04.626Z,11.10
2018-09-24T03:50:33.512Z,11.10
2018-09-24T03:53:02.310Z,11.10
2018-09-24T03:55:31.892Z,11.10
2018-09-24T03:58:00.705Z,11.10
2018-09-24T04:00:29.573Z,11.00
2018-09-24T04:02:58.398Z,11.10
2018-09-24T04:05:32.616Z,11.00
2018-09-24T04:08:06.715Z,11.00
2018-09-24T04:10:40.941Z,11.00
2018-09-24T04:13:15.760Z,11.00
2018-09-24T04:15:49.970Z,11.00
2018-09-24T04:22:01.438Z,11.00
2018-09-24T04:24:35.652Z,10.90
2018-09-24T04:27:09.876Z,10.80
2018-09-24T04:29:44.938Z,10.90
2018-09-24T04:32:19.074Z,10.90
2018-09-24T04:34:53.228Z,10.90
2018-09-24T04:37:27.415Z,10.80
2018-09-24T04:40:02.233Z,10.90
2018-09-24T04:42:36.478Z,11.00
2018-09-24T04:45:10.624Z,11.00
2018-09-24T04:47:44.673Z,10.90
2018-09-24T04:55:22.528Z,11.00
2018-09-24T04:57:57.228Z,11.00
2018-09-24T05:00:31.403Z,11.00
2018-09-24T05:03:05.372Z,11.10
2018-09-24T05:05:38.774Z,11.00
2018-09-24T05:08:12.646Z,11.00
2018-09-24T05:10:45.556Z,11.00
2018-09-24T05:13:18.536Z,11.00
2018-09-24T05:15:51.516Z,11.10
2018-09-24T05:18:24.407Z,11.00
2018-09-24T05:20:58.099Z,11.00
2018-09-24T05:23:30.890Z,11.10
2018-09-24T05:26:03.775Z,11.00
2018-09-24T05:28:36.684Z,11.00
2018-09-24T05:31:09.542Z,11.00
2018-09-24T05:33:42.316Z,11.00
2018-09-24T05:36:15.202Z,11.00
2018-09-24T05:38:48.100Z,11.10
2018-09-24T05:41:21.158Z,11.20
2018-09-24T05:43:53.861Z,11.30
2018-09-24T05:46:26.672Z,11.20
2018-09-24T05:48:59.525Z,11.20
2018-09-24T05:51:32.509Z,11.20
2018-09-24T05:54:05.396Z,11.30
2018-09-24T05:56:38.185Z,11.30
2018-09-24T05:59:11.053Z,11.30
2018-09-24T06:01:43.840Z,11.40
2018-09-24T06:04:17.741Z,11.40
2018-09-24T06:06:52.497Z,11.40
2018-09-24T06:09:26.707Z,11.50
2018-09-24T06:12:00.852Z,11.50
2018-09-24T06:14:35.123Z,11.50
2018-09-24T06:17:09.276Z,11.40
2018-09-24T06:19:43.668Z,11.40
2018-09-24T06:22:18.852Z,11.40
2018-09-24T06:24:53.076Z,11.30
2018-09-24T06:27:27.073Z,11.30
2018-09-24T06:30:01.504Z,11.40
2018-09-24T06:32:35.460Z,11.50
2018-09-24T06:35:09.697Z,11.60
2018-09-24T06:37:43.780Z,11.70
2018-09-24T06:40:18.371Z,11.80
2018-09-24T06:42:52.416Z,11.90
2018-09-24T06:45:26.585Z,11.90
2018-09-24T06:48:01.568Z,11.90
2018-09-24T06:50:36.021Z,11.90
2018-09-24T06:53:11.169Z,11.80
2018-09-24T06:55:45.561Z,11.70
2018-09-24T06:58:19.638Z,11.60
2018-09-24T07:00:53.880Z,11.60
2018-09-24T07:03:28.002Z,11.70
2018-09-24T07:06:02.460Z,11.60
2018-09-24T07:08:36.672Z,11.70
2018-09-24T07:11:10.923Z,11.80
2018-09-24T07:13:47.112Z,11.90
2018-09-24T07:16:21.593Z,12.00
2018-09-24T07:18:55.652Z,12.20
2018-09-24T07:21:29.875Z,12.60
2018-09-24T07:24:05.088Z,12.80
2018-09-24T07:26:39.226Z,13.00
2018-09-24T07:29:13.511Z,13.20
2018-09-24T07:31:47.644Z,13.20
2018-09-24T07:34:21.693Z,13.30
2018-09-24T07:36:55.913Z,13.40
2018-09-24T07:39:29.981Z,13.50
2018-09-24T07:42:04.362Z,13.60
2018-09-24T07:44:38.319Z,13.70
2018-09-24T07:47:12.548Z,13.70
2018-09-24T07:49:47.707Z,13.90
2018-09-24T07:52:21.932Z,14.20
2018-09-24T07:57:37.133Z,14.30
2018-09-24T08:00:11.289Z,14.10
2018-09-24T08:02:45.857Z,13.90
2018-09-24T08:05:20.106Z,14.00
2018-09-24T08:07:54.386Z,14.20
2018-09-24T08:10:29.200Z,14.40
2018-09-24T08:13:03.336Z,14.50
2018-09-24T08:15:37.441Z,14.40
2018-09-24T08:18:12.582Z,14.10
2018-09-24T08:20:46.678Z,13.90
2018-09-24T08:23:20.924Z,13.70
2018-09-24T08:25:55.000Z,13.80
2018-09-24T08:28:29.180Z,13.90
2018-09-24T08:31:03.797Z,14.10
2018-09-24T08:33:39.176Z,14.20
2018-09-24T08:36:13.284Z,14.30
2018-09-24T08:38:50.671Z,14.10
2018-09-24T08:41:24.902Z,14.00
2018-09-24T08:43:59.324Z,13.80
2018-09-24T08:46:33.744Z,13.90
2018-09-24T08:49:08.197Z,14.10
2018-09-24T08:51:42.257Z,14.20
2018-09-24T08:54:16.443Z,14.40
2018-09-24T08:56:50.542Z,14.90
2018-09-24T08:59:25.924Z,15.70
2018-09-24T09:01:59.955Z,16.10
2018-09-24T09:04:34.191Z,16.10
2018-09-24T09:07:08.407Z,16.00
2018-09-24T09:09:42.881Z,15.70
2018-09-24T09:12:16.936Z,15.50
2018-09-24T09:14:51.096Z,15.30
2018-09-24T09:17:25.664Z,15.10
2018-09-24T09:20:00.360Z,15.20
2018-09-24T09:22:34.571Z,15.40
2018-09-24T09:25:08.887Z,15.20
2018-09-24T09:27:43.001Z,15.30
2018-09-24T09:30:17.275Z,15.20
2018-09-24T09:32:51.533Z,15.10
2018-09-24T09:35:25.638Z,15.10
2018-09-24T09:37:59.710Z,15.10
2018-09-24T09:40:34.163Z,15.20
2018-09-24T09:43:08.256Z,15.20
2018-09-24T09:45:42.313Z,15.20
2018-09-24T09:48:16.409Z,15.30
2018-09-24T09:50:50.623Z,15.30
2018-09-24T09:53:24.786Z,15.30
2018-09-24T09:55:59.004Z,15.30
2018-09-24T09:58:33.553Z,15.30
2018-09-24T10:01:08.670Z,15.30
2018-09-24T10:03:44.320Z,15.20
2018-09-24T10:06:18.496Z,15.20
2018-09-24T10:08:52.590Z,15.10
2018-09-24T10:11:26.734Z,15.10
2018-09-24T10:14:00.750Z,15.10
2018-09-24T10:16:34.969Z,15.30
2018-09-24T10:19:09.070Z,15.50
2018-09-24T10:21:43.177Z,15.80
2018-09-24T10:24:17.375Z,16.10
2018-09-24T10:26:51.757Z,16.30
2018-09-24T10:29:26.937Z,16.50
2018-09-24T10:32:01.144Z,16.50
2018-09-24T10:34:35.473Z,16.40
2018-09-24T10:37:09.636Z,16.40
2018-09-24T10:39:43.697Z,16.50
2018-09-24T10:42:18.024Z,16.40
2018-09-24T10:44:52.283Z,16.50
2018-09-24T10:47:26.774Z,16.80
2018-09-24T10:50:00.885Z,17.10
2018-09-24T10:52:34.985Z,17.70
2018-09-24T10:55:09.302Z,17.90
2018-09-24T10:57:45.147Z,18.30
2018-09-24T11:00:19.341Z,18.10
2018-09-24T11:02:54.409Z,17.80
2018-09-24T11:05:28.594Z,17.90
2018-09-24T11:08:03.293Z,18.00
2018-09-24T11:10:37.511Z,18.00
2018-09-24T11:13:11.769Z,17.90
2018-09-24T11:15:46.298Z,17.80
2018-09-24T11:18:20.639Z,17.80
2018-09-24T11:20:54.911Z,17.60
2018-09-24T11:23:29.108Z,17.50
2018-09-24T11:26:03.342Z,17.40
2018-09-24T11:28:37.901Z,17.20
2018-09-24T11:31:12.565Z,17.20
2018-09-24T11:33:47.853Z,17.00
2018-09-24T11:36:22.119Z,16.90
2018-09-24T11:38:56.205Z,16.70
2018-09-24T11:41:30.404Z,16.60
2018-09-24T11:44:04.614Z,16.40
2018-09-24T11:46:38.926Z,16.40
2018-09-24T11:49:13.056Z,16.40
2018-09-24T11:51:47.038Z,16.50
2018-09-24T11:54:21.499Z,16.50
2018-09-24T11:56:55.748Z,16.50
2018-09-24T11:59:30.170Z,16.40
2018-09-24T12:02:04.209Z,16.30
2018-09-24T12:04:38.452Z,16.20
2018-09-24T12:07:13.692Z,15.90
2018-09-24T12:09:47.930Z,15.80
2018-09-24T12:12:22.169Z,15.90
2018-09-24T12:14:57.305Z,16.00
2018-09-24T12:17:31.480Z,15.90
2018-09-24T12:20:06.617Z,15.80
2018-09-24T12:22:40.765Z,15.90
2018-09-24T12:25:15.052Z,15.90
2018-09-24T12:27:49.201Z,15.90
2018-09-24T12:30:23.286Z,16.00
2018-09-24T12:32:57.589Z,16.00
2018-09-24T12:35:31.768Z,16.10
2018-09-24T12:38:05.719Z,16.20
2018-09-24T12:40:39.941Z,16.20
2018-09-24T12:43:14.156Z,16.20
2018-09-24T12:45:48.217Z,16.10
2018-09-24T12:48:22.322Z,15.90
2018-09-24T12:50:56.779Z,15.90
2018-09-24T12:53:30.883Z,15.80
2018-09-24T12:56:05.116Z,15.80
2018-09-24T12:58:39.173Z,15.60
2018-09-24T13:01:13.331Z,15.50
2018-09-24T13:03:47.362Z,15.60
2018-09-24T13:06:21.469Z,15.70
2018-09-24T13:08:55.524Z,15.50
2018-09-24T13:11:29.733Z,15.50
2018-09-24T13:14:03.782Z,15.50
2018-09-24T13:16:38.003Z,15.50
2018-09-24T13:19:12.114Z,15.60
2018-09-24T13:21:46.211Z,15.60
2018-09-24T13:24:20.327Z,15.70
2018-09-24T13:26:54.384Z,15.70
2018-09-24T13:29:29.589Z,15.70
2018-09-24T13:32:04.041Z,15.70
2018-09-24T13:34:38.241Z,15.50
2018-09-24T13:37:13.017Z,15.40
2018-09-24T13:39:47.150Z,15.40
2018-09-24T13:42:21.417Z,15.30
2018-09-24T13:44:55.379Z,15.30
2018-09-24T13:47:29.742Z,15.40
2018-09-24T13:50:03.944Z,15.20
2018-09-24T13:52:38.212Z,15.00
2018-09-24T13:55:11.948Z,15.00
2018-09-24T13:57:46.069Z,14.90
2018-09-24T14:00:21.335Z,14.80
2018-09-24T14:02:57.140Z,14.80
2018-09-24T14:05:31.303Z,14.70
2018-09-24T14:08:06.267Z,14.60
2018-09-24T14:10:40.559Z,14.60
2018-09-24T14:13:14.903Z,14.60
2018-09-24T14:15:48.909Z,14.60
2018-09-24T14:18:23.900Z,14.50
2018-09-24T14:21:01.333Z,14.50
2018-09-24T14:23:35.534Z,14.50
2018-09-24T14:26:10.626Z,14.40
2018-09-24T14:28:44.962Z,14.40
2018-09-24T14:31:19.299Z,14.40
2018-09-24T14:33:53.302Z,14.40
2018-09-24T14:36:27.518Z,14.40
2018-09-24T14:39:02.740Z,14.40
2018-09-24T14:41:36.875Z,14.30
2018-09-24T14:44:11.300Z,14.30
2018-09-24T14:46:45.505Z,14.20
2018-09-24T14:49:19.970Z,14.30
2018-09-24T14:51:54.734Z,14.30
2018-09-24T14:54:28.960Z,14.20
2018-09-24T14:57:03.309Z,14.30
2018-09-24T14:59:37.403Z,14.30
2018-09-24T15:02:11.617Z,14.30
2018-09-24T15:04:45.738Z,14.20
2018-09-24T15:07:19.737Z,14.20
2018-09-24T15:09:53.950Z,14.20
2018-09-24T15:12:28.319Z,14.20
2018-09-24T15:15:02.700Z,14.30
2018-09-24T15:17:36.860Z,14.30
2018-09-24T15:20:11.160Z,14.30
2018-09-24T15:22:45.315Z,14.20
2018-09-24T15:25:19.565Z,14.20
2018-09-24T15:27:53.760Z,14.10
2018-09-24T15:30:28.050Z,14.20
2018-09-24T15:33:02.214Z,14.10
2018-09-24T15:35:36.223Z,14.10
2018-09-24T15:38:10.280Z,14.10
2018-09-24T15:40:44.325Z,14.20
2018-09-24T15:43:19.284Z,14.20
2018-09-24T15:45:53.261Z,14.30
2018-09-24T15:48:32.579Z,14.30
2018-09-24T15:51:06.816Z,14.40
2018-09-24T15:53:41.029Z,14.50
2018-09-24T15:56:16.924Z,14.40
2018-09-24T15:58:51.405Z,14.30
2018-09-24T16:01:25.537Z,14.30
2018-09-24T16:03:59.743Z,14.10
2018-09-24T16:06:33.957Z,14.10
2018-09-24T16:09:08.506Z,14.00
2018-09-24T16:11:42.495Z,14.10
2018-09-24T16:14:16.725Z,14.00
2018-09-24T16:16:51.037Z,14.00
2018-09-24T16:19:25.352Z,14.00
2018-09-24T16:21:59.463Z,13.90
2018-09-24T16:24:33.518Z,14.00
2018-09-24T16:27:07.937Z,13.90
2018-09-24T16:29:42.127Z,13.90
2018-09-24T16:32:16.221Z,13.90
2018-09-24T16:34:50.534Z,13.90
2018-09-24T16:37:24.760Z,13.90
2018-09-24T16:39:58.760Z,13.90
2018-09-24T16:42:33.888Z,13.80
2018-09-24T16:45:08.824Z,13.80
2018-09-24T16:47:42.978Z,13.70
2018-09-24T16:50:17.147Z,13.70
2018-09-24T16:52:51.210Z,13.70
2018-09-24T16:55:25.441Z,13.60
2018-09-24T16:58:00.092Z,13.60
2018-09-24T17:00:34.173Z,13.60
2018-09-24T17:03:08.349Z,13.60
2018-09-24T17:05:42.543Z,13.50
2018-09-24T17:08:16.709Z,13.50
2018-09-24T17:10:50.885Z,13.40
2018-09-24T17:13:28.537Z,13.40
2018-09-24T17:16:02.756Z,13.40
2018-09-24T17:18:36.819Z,13.30
2018-09-24T17:21:11.280Z,13.20
2018-09-24T17:23:45.413Z,13.20
2018-09-24T17:26:19.596Z,13.20
2018-09-24T17:28:53.628Z,13.10
2018-09-24T17:31:28.005Z,13.00
2018-09-24T17:34:02.166Z,13.00
2018-09-24T17:36:36.299Z,13.00
2018-09-24T17:39:13.855Z,12.90
2018-09-24T17:41:48.032Z,12.90
2018-09-24T17:44:22.749Z,12.90
2018-09-24T17:46:57.116Z,12.90
2018-09-24T17:49:31.196Z,12.80
2018-09-24T17:52:06.530Z,12.90
2018-09-24T17:54:40.852Z,12.80
2018-09-24T17:57:15.155Z,12.70
2018-09-24T17:59:49.387Z,12.70
2018-09-24T18:02:23.588Z,12.70
2018-09-24T18:04:57.742Z,12.70
2018-09-24T18:07:31.870Z,12.60
2018-09-24T18:10:12.712Z,12.60
2018-09-24T18:12:47.222Z,12.60
2018-09-24T18:15:21.428Z,12.60
2018-09-24T18:17:55.497Z,12.40
2018-09-24T18:20:29.549Z,12.50
2018-09-24T18:23:04.092Z,12.50
2018-09-24T18:25:38.275Z,12.40
2018-09-24T18:28:12.625Z,12.40
2018-09-24T18:30:46.772Z,12.40
2018-09-24T18:33:20.949Z,12.30
2018-09-24T18:35:56.132Z,12.20
2018-09-24T18:38:30.288Z,12.10
2018-09-24T18:41:04.553Z,12.20
2018-09-24T18:43:38.933Z,12.10
2018-09-24T18:46:13.377Z,12.20
2018-09-24T18:48:47.564Z,12.10
2018-09-24T18:51:21.735Z,12.10
2018-09-24T18:53:56.106Z,12.00
2018-09-24T18:56:30.213Z,12.00
2018-09-24T18:59:04.431Z,12.00
2018-09-24T19:01:38.537Z,12.00
2018-09-24T19:04:13.004Z,11.90
2018-09-24T19:06:47.509Z,11.90
2018-09-24T19:09:22.632Z,12.00
2018-09-24T19:11:57.090Z,11.90
2018-09-24T19:14:31.438Z,11.90
2018-09-24T19:17:05.899Z,11.80
2018-09-24T19:19:40.138Z,11.80
2018-09-24T19:22:14.235Z,11.80
2018-09-24T19:24:48.429Z,11.80
2018-09-24T19:27:22.626Z,11.80
2018-09-24T19:29:57.044Z,11.70
2018-09-24T19:32:31.284Z,11.80
2018-09-24T19:35:05.500Z,11.80
2018-09-24T19:37:39.606Z,11.70
2018-09-24T19:40:13.763Z,11.60
2018-09-24T19:42:47.952Z,11.60
2018-09-24T19:45:24.201Z,11.60
2018-09-24T19:47:58.496Z,11.60
2018-09-24T19:50:32.938Z,11.50
2018-09-24T19:53:07.097Z,11.50
2018-09-24T19:55:41.140Z,11.50
2018-09-24T19:58:15.612Z,11.50
2018-09-24T20:00:51.470Z,11.40
2018-09-24T20:03:25.736Z,11.50
2018-09-24T20:05:59.849Z,11.40
2018-09-24T20:08:34.026Z,11.40
2018-09-24T20:11:08.000Z,11.30
2018-09-24T20:13:42.452Z,11.30
2018-09-24T20:16:16.504Z,11.30
2018-09-24T20:18:50.952Z,11.30
2018-09-24T20:21:25.425Z,11.30
2018-09-24T20:23:59.653Z,11.30
2018-09-24T20:26:33.675Z,11.30
2018-09-24T20:29:07.892Z,11.20
2018-09-24T20:31:42.125Z,11.20
2018-09-24T20:34:16.377Z,11.20
2018-09-24T20:36:50.551Z,11.20
2018-09-24T20:39:24.728Z,11.10
2018-09-24T20:41:58.714Z,11.10
2018-09-24T20:44:33.729Z,11.10
2018-09-24T20:47:07.908Z,11.10
2018-09-24T20:49:42.202Z,11.00
2018-09-24T20:52:16.295Z,11.00
2018-09-24T20:54:51.091Z,11.00
2018-09-24T20:57:25.382Z,10.90
2018-09-24T20:59:59.859Z,10.90
2018-09-24T21:02:34.077Z,10.80
2018-09-24T21:05:08.451Z,10.90
2018-09-24T21:07:42.613Z,10.80
2018-09-24T21:10:16.794Z,10.80
2018-09-24T21:12:50.989Z,10.80
2018-09-24T21:15:25.928Z,10.80
2018-09-24T21:18:00.696Z,10.80
2018-09-24T21:20:34.915Z,10.80
2018-09-24T21:23:09.074Z,10.70
2018-09-24T21:25:43.320Z,10.70
2018-09-24T21:28:17.506Z,10.60
2018-09-24T21:30:51.807Z,10.50
2018-09-24T21:33:26.144Z,10.60
2018-09-24T21:36:00.391Z,10.60
2018-09-24T21:38:34.387Z,10.50
2018-09-24T21:41:08.614Z,10.50
2018-09-24T21:43:42.786Z,10.50
2018-09-24T21:46:17.122Z,10.40
2018-09-24T21:48:51.697Z,10.40
2018-09-24T21:51:27.146Z,10.40
2018-09-24T21:54:01.452Z,10.40
2018-09-24T21:56:35.525Z,10.40
2018-09-24T21:59:09.850Z,10.40
2018-09-24T22:01:44.085Z,10.30
2018-09-24T22:04:18.112Z,10.30
2018-09-24T22:06:52.143Z,10.30
2018-09-24T22:09:26.323Z,10.30
2018-09-24T22:12:01.523Z,10.30
2018-09-24T22:14:35.786Z,10.30
2018-09-24T22:17:09.884Z,10.30
2018-09-24T22:19:44.020Z,10.30
2018-09-24T22:22:18.100Z,10.20
2018-09-24T22:24:52.299Z,10.20
2018-09-24T22:27:27.089Z,10.20
2018-09-24T22:30:01.742Z,10.20
2018-09-24T22:32:36.021Z,10.10
2018-09-24T22:35:10.227Z,10.10
2018-09-24T22:37:44.477Z,10.00
2018-09-24T22:40:18.425Z,10.00
2018-09-24T22:42:52.718Z,10.00
2018-09-24T22:45:26.653Z,9.90
2018-09-24T22:48:01.777Z,9.90
2018-09-24T22:50:35.903Z,9.90
2018-09-24T22:53:10.000Z,9.90
2018-09-24T22:55:44.068Z,9.90
2018-09-24T22:58:18.279Z,10.00
2018-09-24T23:00:52.329Z,9.90
2018-09-24T23:03:26.505Z,9.90
2018-09-24T23:06:00.672Z,9.90
2018-09-24T23:08:34.840Z,9.90
2018-09-24T23:11:09.022Z,9.90
2018-09-24T23:13:43.135Z,9.90
2018-09-24T23:16:17.339Z,9.80
2018-09-24T23:18:51.611Z,9.90
2018-09-24T23:21:25.733Z,9.80
2018-09-24T23:24:01.233Z,9.80
2018-09-24T23:26:35.290Z,9.80
2018-09-24T23:29:10.092Z,9.80
2018-09-24T23:31:44.264Z,9.80
2018-09-24T23:34:18.660Z,9.80
2018-09-24T23:36:52.701Z,9.70
2018-09-24T23:39:27.012Z,9.70
2018-09-24T23:42:01.174Z,9.60
2018-09-24T23:44:36.341Z,9.70
2018-09-24T23:47:10.531Z,9.60
2018-09-24T23:49:45.564Z,9.60
2018-09-24T23:52:20.868Z,9.60
2018-09-24T23:54:55.137Z,9.60
2018-09-24T23:57:29.001Z,9.60
